Air Navigation Services of Czech Republic
Airport: LKCV Updated:  11.08.2020 00:30:28  UTC
 METAR LKCV 11.08. 00:30 ...
METAR LKCV 110030Z 33002KT CAVOK 19/18 Q1018 NOSIG RMK BLU BLU=
 TAF LKCV 10.08. 23:00 ...
TAF LKCV 102300Z 1100/1200 32005KT CAVOK      TEMPO 1100/1115 03016KT 7000 SHRA BKN030TCU      PROB40 TEMPO 1100/1107 01018G28KT 2000 TSRA BR SCT004 BKN020CB      PROB40 TEMPO 1110/1116 11018G28KT 4000 TSRA BKN025CB=